sensor_id;sensor_type;location;lat;lon;timestamp;P1;durP1;ratioP1;P2;durP2;ratioP2
19358;SDS011;9815;52.334;20.890;2023-07-29T00:01:15;115.87;;;108.80;;
19358;SDS011;9815;52.334;20.890;2023-07-29T00:03:43;112.27;;;105.43;;
19358;SDS011;9815;52.334;20.890;2023-07-29T00:06:13;112.97;;;106.00;;
19358;SDS011;9815;52.334;20.890;2023-07-29T00:08:41;106.23;;;99.53;;
19358;SDS011;9815;52.334;20.890;2023-07-29T00:11:08;106.13;;;99.63;;
19358;SDS011;9815;52.334;20.890;2023-07-29T00:13:37;107.80;;;101.10;;
19358;SDS011;9815;52.334;20.890;2023-07-29T00:16:05;106.43;;;99.23;;
19358;SDS011;9815;52.334;20.890;2023-07-29T00:18:34;105.60;;;98.77;;
19358;SDS011;9815;52.334;20.890;2023-07-29T00:21:02;100.73;;;94.53;;
19358;SDS011;9815;52.334;20.890;2023-07-29T00:23:32;99.57;;;93.23;;
19358;SDS011;9815;52.334;20.890;2023-07-29T00:26:00;96.47;;;90.47;;
19358;SDS011;9815;52.334;20.890;2023-07-29T00:28:28;87.00;;;81.50;;
19358;SDS011;9815;52.334;20.890;2023-07-29T00:30:58;91.07;;;84.90;;
19358;SDS011;9815;52.334;20.890;2023-07-29T00:33:26;94.00;;;87.80;;
19358;SDS011;9815;52.334;20.890;2023-07-29T00:35:54;90.37;;;83.90;;
19358;SDS011;9815;52.334;20.890;2023-07-29T00:38:23;88.10;;;81.87;;
19358;SDS011;9815;52.334;20.890;2023-07-29T00:40:55;92.90;;;86.07;;
19358;SDS011;9815;52.334;20.890;2023-07-29T00:43:24;89.93;;;83.97;;
19358;SDS011;9815;52.334;20.890;2023-07-29T00:45:53;93.83;;;87.77;;
19358;SDS011;9815;52.334;20.890;2023-07-29T00:48:23;93.97;;;87.90;;
19358;SDS011;9815;52.334;20.890;2023-07-29T00:50:53;88.63;;;82.93;;
19358;SDS011;9815;52.334;20.890;2023-07-29T00:53:22;91.27;;;85.23;;
19358;SDS011;9815;52.334;20.890;2023-07-29T00:55:50;94.93;;;88.87;;
19358;SDS011;9815;52.334;20.890;2023-07-29T00:58:20;89.23;;;83.40;;
19358;SDS011;9815;52.334;20.890;2023-07-29T01:00:49;88.43;;;82.63;;
19358;SDS011;9815;52.334;20.890;2023-07-29T01:03:18;84.30;;;78.87;;
19358;SDS011;9815;52.334;20.890;2023-07-29T01:05:50;85.00;;;79.33;;
19358;SDS011;9815;52.334;20.890;2023-07-29T01:08:27;79.87;;;74.43;;
19358;SDS011;9815;52.334;20.890;2023-07-29T01:11:01;81.67;;;76.37;;
19358;SDS011;9815;52.334;20.890;2023-07-29T01:13:40;74.23;;;69.17;;
19358;SDS011;9815;52.334;20.890;2023-07-29T01:16:16;70.63;;;65.33;;
19358;SDS011;9815;52.334;20.890;2023-07-29T01:18:48;67.90;;;63.33;;
19358;SDS011;9815;52.334;20.890;2023-07-29T01:21:22;65.77;;;61.27;;
19358;SDS011;9815;52.334;20.890;2023-07-29T01:23:59;70.13;;;65.47;;
19358;SDS011;9815;52.334;20.890;2023-07-29T01:26:27;72.37;;;67.10;;
19358;SDS011;9815;52.334;20.890;2023-07-29T01:28:56;74.33;;;68.93;;
19358;SDS011;9815;52.334;20.890;2023-07-29T01:31:27;72.30;;;66.93;;
19358;SDS011;9815;52.334;20.890;2023-07-29T01:34:02;69.57;;;64.63;;
19358;SDS011;9815;52.334;20.890;2023-07-29T01:36:37;68.67;;;63.77;;
19358;SDS011;9815;52.334;20.890;2023-07-29T01:39:14;72.87;;;67.43;;
19358;SDS011;9815;52.334;20.890;2023-07-29T01:41:44;68.50;;;63.70;;
19358;SDS011;9815;52.334;20.890;2023-07-29T01:44:13;69.80;;;65.17;;
19358;SDS011;9815;52.334;20.890;2023-07-29T01:46:43;67.57;;;62.97;;
19358;SDS011;9815;52.334;20.890;2023-07-29T01:49:12;66.17;;;61.63;;
19358;SDS011;9815;52.334;20.890;2023-07-29T01:51:40;61.93;;;57.53;;
19358;SDS011;9815;52.334;20.890;2023-07-29T01:54:08;63.87;;;59.10;;
19358;SDS011;9815;52.334;20.890;2023-07-29T01:56:38;63.20;;;58.90;;
19358;SDS011;9815;52.334;20.890;2023-07-29T01:59:06;64.90;;;60.60;;
19358;SDS011;9815;52.334;20.890;2023-07-29T02:01:35;64.17;;;59.43;;
19358;SDS011;9815;52.334;20.890;2023-07-29T02:04:03;65.27;;;60.83;;
19358;SDS011;9815;52.334;20.890;2023-07-29T02:06:32;66.03;;;61.53;;
19358;SDS011;9815;52.334;20.890;2023-07-29T02:09:01;67.80;;;62.70;;
19358;SDS011;9815;52.334;20.890;2023-07-29T02:11:31;68.23;;;63.27;;
19358;SDS011;9815;52.334;20.890;2023-07-29T02:14:00;67.40;;;62.97;;
19358;SDS011;9815;52.334;20.890;2023-07-29T02:16:29;68.83;;;63.10;;
19358;SDS011;9815;52.334;20.890;2023-07-29T02:19:00;69.57;;;64.97;;
19358;SDS011;9815;52.334;20.890;2023-07-29T02:21:28;67.60;;;63.10;;
19358;SDS011;9815;52.334;20.890;2023-07-29T02:23:56;65.63;;;61.23;;
19358;SDS011;9815;52.334;20.890;2023-07-29T02:26:25;63.57;;;59.17;;
19358;SDS011;9815;52.334;20.890;2023-07-29T02:28:53;65.07;;;60.67;;
19358;SDS011;9815;52.334;20.890;2023-07-29T02:31:23;66.07;;;61.33;;
19358;SDS011;9815;52.334;20.890;2023-07-29T02:33:52;67.57;;;62.30;;
19358;SDS011;9815;52.334;20.890;2023-07-29T02:36:22;62.60;;;57.70;;
19358;SDS011;9815;52.334;20.890;2023-07-29T02:38:50;65.70;;;61.40;;
19358;SDS011;9815;52.334;20.890;2023-07-29T02:41:19;61.40;;;57.20;;
19358;SDS011;9815;52.334;20.890;2023-07-29T02:43:48;62.53;;;58.17;;
19358;SDS011;9815;52.334;20.890;2023-07-29T02:46:17;60.90;;;56.77;;
19358;SDS011;9815;52.334;20.890;2023-07-29T02:48:47;63.40;;;58.93;;
19358;SDS011;9815;52.334;20.890;2023-07-29T02:51:15;60.30;;;56.20;;
19358;SDS011;9815;52.334;20.890;2023-07-29T02:53:44;62.47;;;58.07;;
19358;SDS011;9815;52.334;20.890;2023-07-29T02:56:12;60.33;;;56.27;;
19358;SDS011;9815;52.334;20.890;2023-07-29T02:58:40;62.33;;;57.93;;
19358;SDS011;9815;52.334;20.890;2023-07-29T03:01:08;60.10;;;55.90;;
19358;SDS011;9815;52.334;20.890;2023-07-29T03:03:37;58.27;;;54.33;;
19358;SDS011;9815;52.334;20.890;2023-07-29T03:06:07;55.27;;;51.57;;
19358;SDS011;9815;52.334;20.890;2023-07-29T03:08:37;55.80;;;52.00;;
19358;SDS011;9815;52.334;20.890;2023-07-29T03:11:05;55.13;;;51.50;;
19358;SDS011;9815;52.334;20.890;2023-07-29T03:13:35;58.83;;;54.13;;
19358;SDS011;9815;52.334;20.890;2023-07-29T03:16:06;58.53;;;54.63;;
19358;SDS011;9815;52.334;20.890;2023-07-29T03:18:37;57.53;;;53.50;;
19358;SDS011;9815;52.334;20.890;2023-07-29T03:21:07;57.57;;;53.47;;
19358;SDS011;9815;52.334;20.890;2023-07-29T03:23:36;59.13;;;55.13;;
19358;SDS011;9815;52.334;20.890;2023-07-29T03:26:05;59.67;;;55.37;;
19358;SDS011;9815;52.334;20.890;2023-07-29T03:28:37;58.13;;;54.03;;
19358;SDS011;9815;52.334;20.890;2023-07-29T03:31:06;57.17;;;53.17;;
19358;SDS011;9815;52.334;20.890;2023-07-29T03:33:36;57.13;;;53.33;;
19358;SDS011;9815;52.334;20.890;2023-07-29T03:36:04;57.90;;;54.00;;
19358;SDS011;9815;52.334;20.890;2023-07-29T03:38:34;58.17;;;53.67;;
19358;SDS011;9815;52.334;20.890;2023-07-29T03:41:07;55.93;;;52.13;;
19358;SDS011;9815;52.334;20.890;2023-07-29T03:43:36;56.90;;;52.00;;
19358;SDS011;9815;52.334;20.890;2023-07-29T03:46:04;55.57;;;51.50;;
19358;SDS011;9815;52.334;20.890;2023-07-29T03:48:38;53.00;;;49.40;;
19358;SDS011;9815;52.334;20.890;2023-07-29T03:51:08;52.37;;;48.97;;
19358;SDS011;9815;52.334;20.890;2023-07-29T03:53:36;50.70;;;47.37;;
19358;SDS011;9815;52.334;20.890;2023-07-29T03:56:04;52.90;;;49.43;;
19358;SDS011;9815;52.334;20.890;2023-07-29T03:58:33;49.30;;;46.03;;
19358;SDS011;9815;52.334;20.890;2023-07-29T04:01:02;50.43;;;46.93;;
19358;SDS011;9815;52.334;20.890;2023-07-29T04:03:32;52.10;;;48.10;;
19358;SDS011;9815;52.334;20.890;2023-07-29T04:06:02;49.77;;;46.20;;
19358;SDS011;9815;52.334;20.890;2023-07-29T04:08:31;48.77;;;45.50;;
19358;SDS011;9815;52.334;20.890;2023-07-29T04:11:00;51.20;;;47.80;;
19358;SDS011;9815;52.334;20.890;2023-07-29T04:13:28;52.77;;;49.00;;
19358;SDS011;9815;52.334;20.890;2023-07-29T04:15:56;51.87;;;48.50;;
19358;SDS011;9815;52.334;20.890;2023-07-29T04:18:25;53.00;;;49.40;;
19358;SDS011;9815;52.334;20.890;2023-07-29T04:20:53;54.70;;;50.67;;
19358;SDS011;9815;52.334;20.890;2023-07-29T04:23:21;60.30;;;55.57;;
19358;SDS011;9815;52.334;20.890;2023-07-29T04:25:51;64.90;;;60.17;;
19358;SDS011;9815;52.334;20.890;2023-07-29T04:28:20;66.43;;;61.97;;
19358;SDS011;9815;52.334;20.890;2023-07-29T04:30:48;70.90;;;65.20;;
19358;SDS011;9815;52.334;20.890;2023-07-29T04:33:16;76.33;;;70.83;;
19358;SDS011;9815;52.334;20.890;2023-07-29T04:35:45;76.43;;;70.83;;
19358;SDS011;9815;52.334;20.890;2023-07-29T04:38:13;83.77;;;75.87;;
19358;SDS011;9815;52.334;20.890;2023-07-29T04:40:41;85.77;;;79.57;;
19358;SDS011;9815;52.334;20.890;2023-07-29T04:43:11;86.70;;;78.27;;
19358;SDS011;9815;52.334;20.890;2023-07-29T04:45:42;85.03;;;76.53;;
19358;SDS011;9815;52.334;20.890;2023-07-29T04:48:10;86.20;;;78.63;;
19358;SDS011;9815;52.334;20.890;2023-07-29T04:50:39;92.83;;;84.93;;
19358;SDS011;9815;52.334;20.890;2023-07-29T04:53:07;87.53;;;80.97;;
19358;SDS011;9815;52.334;20.890;2023-07-29T04:55:36;92.87;;;85.07;;
19358;SDS011;9815;52.334;20.890;2023-07-29T04:58:04;96.50;;;89.17;;
19358;SDS011;9815;52.334;20.890;2023-07-29T05:00:34;99.70;;;91.40;;
19358;SDS011;9815;52.334;20.890;2023-07-29T05:03:02;99.20;;;91.07;;
19358;SDS011;9815;52.334;20.890;2023-07-29T05:05:30;99.40;;;91.77;;
19358;SDS011;9815;52.334;20.890;2023-07-29T05:08:00;107.73;;;99.93;;
19358;SDS011;9815;52.334;20.890;2023-07-29T05:10:28;102.50;;;95.20;;
19358;SDS011;9815;52.334;20.890;2023-07-29T05:12:56;111.03;;;102.83;;
19358;SDS011;9815;52.334;20.890;2023-07-29T05:15:24;116.83;;;108.57;;
19358;SDS011;9815;52.334;20.890;2023-07-29T05:17:54;121.27;;;112.70;;
19358;SDS011;9815;52.334;20.890;2023-07-29T05:20:22;122.83;;;114.13;;
19358;SDS011;9815;52.334;20.890;2023-07-29T05:22:51;124.07;;;115.47;;
19358;SDS011;9815;52.334;20.890;2023-07-29T05:25:19;118.83;;;110.53;;
19358;SDS011;9815;52.334;20.890;2023-07-29T05:27:47;121.73;;;113.33;;
19358;SDS011;9815;52.334;20.890;2023-07-29T05:30:16;121.63;;;113.33;;
19358;SDS011;9815;52.334;20.890;2023-07-29T05:32:44;124.93;;;115.83;;
19358;SDS011;9815;52.334;20.890;2023-07-29T05:35:14;126.37;;;117.47;;
19358;SDS011;9815;52.334;20.890;2023-07-29T05:37:43;138.67;;;129.10;;
19358;SDS011;9815;52.334;20.890;2023-07-29T05:40:11;133.77;;;124.70;;
19358;SDS011;9815;52.334;20.890;2023-07-29T05:42:39;124.80;;;116.30;;
19358;SDS011;9815;52.334;20.890;2023-07-29T05:45:09;119.30;;;110.87;;
19358;SDS011;9815;52.334;20.890;2023-07-29T05:47:38;111.93;;;103.93;;
19358;SDS011;9815;52.334;20.890;2023-07-29T05:50:06;99.57;;;92.53;;
19358;SDS011;9815;52.334;20.890;2023-07-29T05:52:37;95.83;;;88.87;;
19358;SDS011;9815;52.334;20.890;2023-07-29T05:55:06;95.57;;;88.23;;
19358;SDS011;9815;52.334;20.890;2023-07-29T05:57:34;101.03;;;93.43;;
19358;SDS011;9815;52.334;20.890;2023-07-29T06:00:06;106.40;;;98.77;;
19358;SDS011;9815;52.334;20.890;2023-07-29T06:02:39;101.63;;;94.27;;
19358;SDS011;9815;52.334;20.890;2023-07-29T06:05:12;102.47;;;94.67;;
19358;SDS011;9815;52.334;20.890;2023-07-29T06:07:42;109.77;;;101.70;;
19358;SDS011;9815;52.334;20.890;2023-07-29T06:10:14;111.13;;;103.23;;
19358;SDS011;9815;52.334;20.890;2023-07-29T06:12:45;115.70;;;107.80;;
19358;SDS011;9815;52.334;20.890;2023-07-29T06:15:14;111.20;;;103.53;;
19358;SDS011;9815;52.334;20.890;2023-07-29T06:17:42;103.63;;;96.33;;
19358;SDS011;9815;52.334;20.890;2023-07-29T06:20:11;109.77;;;102.13;;
19358;SDS011;9815;52.334;20.890;2023-07-29T06:22:40;107.50;;;100.03;;
19358;SDS011;9815;52.334;20.890;2023-07-29T06:25:10;104.37;;;97.13;;
19358;SDS011;9815;52.334;20.890;2023-07-29T06:27:38;105.43;;;98.47;;
19358;SDS011;9815;52.334;20.890;2023-07-29T06:30:07;101.90;;;94.93;;
19358;SDS011;9815;52.334;20.890;2023-07-29T06:32:36;97.27;;;90.80;;
19358;SDS011;9815;52.334;20.890;2023-07-29T06:35:04;88.93;;;82.73;;
19358;SDS011;9815;52.334;20.890;2023-07-29T06:37:33;72.27;;;67.13;;
19358;SDS011;9815;52.334;20.890;2023-07-29T06:40:03;66.87;;;62.07;;
19358;SDS011;9815;52.334;20.890;2023-07-29T06:42:33;61.57;;;57.10;;
19358;SDS011;9815;52.334;20.890;2023-07-29T06:45:04;63.37;;;58.63;;
19358;SDS011;9815;52.334;20.890;2023-07-29T06:47:33;57.80;;;53.50;;
19358;SDS011;9815;52.334;20.890;2023-07-29T06:50:01;53.13;;;49.30;;
19358;SDS011;9815;52.334;20.890;2023-07-29T06:52:29;56.73;;;52.63;;
19358;SDS011;9815;52.334;20.890;2023-07-29T06:54:58;56.27;;;51.80;;
19358;SDS011;9815;52.334;20.890;2023-07-29T06:57:27;47.50;;;43.60;;
19358;SDS011;9815;52.334;20.890;2023-07-29T06:59:56;46.83;;;43.30;;
19358;SDS011;9815;52.334;20.890;2023-07-29T07:02:24;51.23;;;47.03;;
19358;SDS011;9815;52.334;20.890;2023-07-29T07:04:52;46.83;;;43.17;;
19358;SDS011;9815;52.334;20.890;2023-07-29T07:07:21;44.43;;;41.13;;
19358;SDS011;9815;52.334;20.890;2023-07-29T07:09:49;45.97;;;42.13;;
19358;SDS011;9815;52.334;20.890;2023-07-29T07:12:17;51.60;;;46.90;;
19358;SDS011;9815;52.334;20.890;2023-07-29T07:14:47;56.73;;;52.27;;
19358;SDS011;9815;52.334;20.890;2023-07-29T07:17:15;54.83;;;50.67;;
19358;SDS011;9815;52.334;20.890;2023-07-29T07:19:44;52.90;;;48.93;;
19358;SDS011;9815;52.334;20.890;2023-07-29T07:22:12;52.10;;;48.13;;
19358;SDS011;9815;52.334;20.890;2023-07-29T07:24:41;47.03;;;43.33;;
19358;SDS011;9815;52.334;20.890;2023-07-29T07:27:09;46.33;;;42.70;;
19358;SDS011;9815;52.334;20.890;2023-07-29T07:29:38;46.53;;;42.67;;
19358;SDS011;9815;52.334;20.890;2023-07-29T07:32:08;50.33;;;46.43;;
19358;SDS011;9815;52.334;20.890;2023-07-29T07:34:36;50.83;;;46.87;;
19358;SDS011;9815;52.334;20.890;2023-07-29T07:37:05;49.77;;;45.97;;
19358;SDS011;9815;52.334;20.890;2023-07-29T07:39:33;47.33;;;43.80;;
19358;SDS011;9815;52.334;20.890;2023-07-29T07:42:02;45.57;;;41.83;;
19358;SDS011;9815;52.334;20.890;2023-07-29T07:44:30;45.97;;;42.53;;
19358;SDS011;9815;52.334;20.890;2023-07-29T07:46:59;41.33;;;38.23;;
19358;SDS011;9815;52.334;20.890;2023-07-29T07:49:32;36.90;;;33.63;;
19358;SDS011;9815;52.334;20.890;2023-07-29T07:52:00;37.53;;;34.63;;
19358;SDS011;9815;52.334;20.890;2023-07-29T07:54:28;39.27;;;36.23;;
19358;SDS011;9815;52.334;20.890;2023-07-29T07:56:57;31.17;;;28.27;;
19358;SDS011;9815;52.334;20.890;2023-07-29T07:59:25;26.83;;;24.53;;
19358;SDS011;9815;52.334;20.890;2023-07-29T08:01:53;23.37;;;21.27;;
19358;SDS011;9815;52.334;20.890;2023-07-29T08:04:21;17.73;;;15.63;;
19358;SDS011;9815;52.334;20.890;2023-07-29T08:06:51;14.33;;;12.83;;
19358;SDS011;9815;52.334;20.890;2023-07-29T08:09:19;12.43;;;11.23;;
19358;SDS011;9815;52.334;20.890;2023-07-29T08:11:47;11.93;;;9.87;;
19358;SDS011;9815;52.334;20.890;2023-07-29T08:14:16;10.63;;;8.67;;
19358;SDS011;9815;52.334;20.890;2023-07-29T08:16:44;8.77;;;7.33;;
19358;SDS011;9815;52.334;20.890;2023-07-29T08:19:12;10.00;;;6.87;;
19358;SDS011;9815;52.334;20.890;2023-07-29T08:21:41;7.40;;;6.13;;
19358;SDS011;9815;52.334;20.890;2023-07-29T08:24:10;7.03;;;6.07;;
19358;SDS011;9815;52.334;20.890;2023-07-29T08:26:38;6.40;;;5.50;;
19358;SDS011;9815;52.334;20.890;2023-07-29T08:29:07;8.37;;;5.77;;
19358;SDS011;9815;52.334;20.890;2023-07-29T08:31:35;7.93;;;5.97;;
19358;SDS011;9815;52.334;20.890;2023-07-29T08:34:04;7.93;;;5.97;;
19358;SDS011;9815;52.334;20.890;2023-07-29T08:36:32;8.27;;;5.65;;
19358;SDS011;9815;52.334;20.890;2023-07-29T08:39:01;6.38;;;5.03;;
19358;SDS011;9815;52.334;20.890;2023-07-29T08:41:31;4.85;;;4.30;;
19358;SDS011;9815;52.334;20.890;2023-07-29T08:44:06;4.53;;;3.90;;
19358;SDS011;9815;52.334;20.890;2023-07-29T08:46:39;9.15;;;5.07;;
19358;SDS011;9815;52.334;20.890;2023-07-29T08:49:07;6.35;;;4.13;;
19358;SDS011;9815;52.334;20.890;2023-07-29T08:51:36;4.05;;;3.35;;
19358;SDS011;9815;52.334;20.890;2023-07-29T08:54:06;5.13;;;3.63;;
19358;SDS011;9815;52.334;20.890;2023-07-29T08:56:35;4.13;;;3.05;;
19358;SDS011;9815;52.334;20.890;2023-07-29T08:59:05;4.07;;;3.05;;
19358;SDS011;9815;52.334;20.890;2023-07-29T09:01:34;3.40;;;3.05;;
19358;SDS011;9815;52.334;20.890;2023-07-29T09:04:03;8.93;;;3.60;;
19358;SDS011;9815;52.334;20.890;2023-07-29T09:06:32;3.35;;;3.05;;
19358;SDS011;9815;52.334;20.890;2023-07-29T09:09:01;3.80;;;2.50;;
19358;SDS011;9815;52.334;20.890;2023-07-29T09:11:30;2.22;;;1.90;;
19358;SDS011;9815;52.334;20.890;2023-07-29T09:14:00;2.20;;;1.95;;
19358;SDS011;9815;52.334;20.890;2023-07-29T09:16:28;3.20;;;2.10;;
19358;SDS011;9815;52.334;20.890;2023-07-29T09:18:57;2.55;;;1.95;;
19358;SDS011;9815;52.334;20.890;2023-07-29T09:21:29;2.35;;;2.03;;
19358;SDS011;9815;52.334;20.890;2023-07-29T09:23:58;2.38;;;2.10;;
19358;SDS011;9815;52.334;20.890;2023-07-29T09:26:31;6.20;;;2.15;;
19358;SDS011;9815;52.334;20.890;2023-07-29T09:29:00;2.58;;;1.80;;
19358;SDS011;9815;52.334;20.890;2023-07-29T09:31:29;2.90;;;2.25;;
19358;SDS011;9815;52.334;20.890;2023-07-29T09:33:58;2.47;;;2.20;;
19358;SDS011;9815;52.334;20.890;2023-07-29T09:36:27;2.97;;;2.03;;
19358;SDS011;9815;52.334;20.890;2023-07-29T09:39:00;5.22;;;2.22;;
19358;SDS011;9815;52.334;20.890;2023-07-29T09:41:30;2.78;;;2.22;;
19358;SDS011;9815;52.334;20.890;2023-07-29T09:43:59;3.42;;;2.35;;
19358;SDS011;9815;52.334;20.890;2023-07-29T09:46:32;4.20;;;2.20;;
19358;SDS011;9815;52.334;20.890;2023-07-29T09:49:02;3.45;;;2.13;;
19358;SDS011;9815;52.334;20.890;2023-07-29T09:51:31;4.28;;;2.20;;
19358;SDS011;9815;52.334;20.890;2023-07-29T09:54:04;2.55;;;1.77;;
19358;SDS011;9815;52.334;20.890;2023-07-29T09:56:32;4.32;;;1.92;;
19358;SDS011;9815;52.334;20.890;2023-07-29T09:59:02;2.92;;;2.20;;
19358;SDS011;9815;52.334;20.890;2023-07-29T10:01:32;3.17;;;1.90;;
19358;SDS011;9815;52.334;20.890;2023-07-29T10:04:03;2.53;;;1.90;;
19358;SDS011;9815;52.334;20.890;2023-07-29T10:06:33;2.85;;;2.00;;
19358;SDS011;9815;52.334;20.890;2023-07-29T10:09:02;2.53;;;1.80;;
19358;SDS011;9815;52.334;20.890;2023-07-29T10:11:32;2.40;;;2.00;;
19358;SDS011;9815;52.334;20.890;2023-07-29T10:14:04;2.28;;;1.90;;
19358;SDS011;9815;52.334;20.890;2023-07-29T10:16:34;3.15;;;2.10;;
19358;SDS011;9815;52.334;20.890;2023-07-29T10:19:05;2.40;;;1.95;;
19358;SDS011;9815;52.334;20.890;2023-07-29T10:21:35;2.03;;;1.80;;
19358;SDS011;9815;52.334;20.890;2023-07-29T10:24:08;2.20;;;1.83;;
19358;SDS011;9815;52.334;20.890;2023-07-29T10:26:43;3.97;;;1.90;;
19358;SDS011;9815;52.334;20.890;2023-07-29T10:29:15;4.50;;;2.15;;
19358;SDS011;9815;52.334;20.890;2023-07-29T10:31:47;2.13;;;1.83;;
19358;SDS011;9815;52.334;20.890;2023-07-29T10:34:20;3.60;;;1.60;;
19358;SDS011;9815;52.334;20.890;2023-07-29T10:36:49;1.70;;;1.50;;
19358;SDS011;9815;52.334;20.890;2023-07-29T10:39:19;2.05;;;1.60;;
19358;SDS011;9815;52.334;20.890;2023-07-29T10:41:59;2.08;;;1.52;;
19358;SDS011;9815;52.334;20.890;2023-07-29T10:47:17;2.67;;;1.90;;
19358;SDS011;9815;52.334;20.890;2023-07-29T10:49:49;1.67;;;1.55;;
19358;SDS011;9815;52.334;20.890;2023-07-29T10:52:31;2.20;;;1.80;;
19358;SDS011;9815;52.334;20.890;2023-07-29T10:58:06;2.30;;;1.90;;
19358;SDS011;9815;52.334;20.890;2023-07-29T11:00:37;6.00;;;1.83;;
19358;SDS011;9815;52.334;20.890;2023-07-29T11:03:08;2.13;;;1.80;;
19358;SDS011;9815;52.334;20.890;2023-07-29T11:05:45;3.20;;;1.83;;
19358;SDS011;9815;52.334;20.890;2023-07-29T11:08:17;2.35;;;2.00;;
19358;SDS011;9815;52.334;20.890;2023-07-29T11:11:04;2.38;;;1.50;;
19358;SDS011;9815;52.334;20.890;2023-07-29T11:13:34;4.63;;;1.63;;
19358;SDS011;9815;52.334;20.890;2023-07-29T11:16:05;1.60;;;1.50;;
19358;SDS011;9815;52.334;20.890;2023-07-29T11:18:34;3.95;;;2.10;;
19358;SDS011;9815;52.334;20.890;2023-07-29T11:21:03;2.50;;;1.92;;
19358;SDS011;9815;52.334;20.890;2023-07-29T11:23:32;2.72;;;1.55;;
19358;SDS011;9815;52.334;20.890;2023-07-29T11:26:03;2.13;;;1.52;;
19358;SDS011;9815;52.334;20.890;2023-07-29T11:28:37;1.90;;;1.63;;
19358;SDS011;9815;52.334;20.890;2023-07-29T11:31:09;1.77;;;1.52;;
19358;SDS011;9815;52.334;20.890;2023-07-29T11:33:38;2.42;;;1.42;;
19358;SDS011;9815;52.334;20.890;2023-07-29T11:36:16;4.60;;;1.67;;
19358;SDS011;9815;52.334;20.890;2023-07-29T11:38:45;2.70;;;1.52;;
19358;SDS011;9815;52.334;20.890;2023-07-29T11:41:18;1.65;;;1.50;;
19358;SDS011;9815;52.334;20.890;2023-07-29T11:43:48;2.78;;;1.95;;
19358;SDS011;9815;52.334;20.890;2023-07-29T11:46:21;1.77;;;1.50;;
19358;SDS011;9815;52.334;20.890;2023-07-29T11:48:50;1.88;;;1.42;;
19358;SDS011;9815;52.334;20.890;2023-07-29T11:51:18;2.00;;;1.42;;
19358;SDS011;9815;52.334;20.890;2023-07-29T11:53:46;1.70;;;1.40;;
19358;SDS011;9815;52.334;20.890;2023-07-29T11:56:15;2.78;;;1.40;;
19358;SDS011;9815;52.334;20.890;2023-07-29T11:58:44;3.10;;;1.90;;
19358;SDS011;9815;52.334;20.890;2023-07-29T12:01:13;2.90;;;2.00;;
19358;SDS011;9815;52.334;20.890;2023-07-29T12:03:43;2.67;;;1.52;;
19358;SDS011;9815;52.334;20.890;2023-07-29T12:06:12;3.70;;;1.50;;
19358;SDS011;9815;52.334;20.890;2023-07-29T12:08:40;1.85;;;1.52;;
19358;SDS011;9815;52.334;20.890;2023-07-29T12:11:09;2.22;;;1.70;;
19358;SDS011;9815;52.334;20.890;2023-07-29T12:13:38;2.08;;;1.50;;
19358;SDS011;9815;52.334;20.890;2023-07-29T12:16:06;1.50;;;1.38;;
19358;SDS011;9815;52.334;20.890;2023-07-29T12:18:37;2.55;;;1.60;;
19358;SDS011;9815;52.334;20.890;2023-07-29T12:21:07;1.67;;;1.30;;
19358;SDS011;9815;52.334;20.890;2023-07-29T12:23:37;1.52;;;1.20;;
19358;SDS011;9815;52.334;20.890;2023-07-29T12:26:06;1.55;;;1.30;;
19358;SDS011;9815;52.334;20.890;2023-07-29T12:28:36;2.25;;;1.75;;
19358;SDS011;9815;52.334;20.890;2023-07-29T12:31:07;3.63;;;1.60;;
19358;SDS011;9815;52.334;20.890;2023-07-29T12:33:37;1.50;;;1.35;;
19358;SDS011;9815;52.334;20.890;2023-07-29T12:36:09;1.77;;;1.60;;
19358;SDS011;9815;52.334;20.890;2023-07-29T12:38:38;5.90;;;1.63;;
19358;SDS011;9815;52.334;20.890;2023-07-29T12:41:06;1.60;;;1.50;;
19358;SDS011;9815;52.334;20.890;2023-07-29T12:43:36;1.88;;;1.58;;
19358;SDS011;9815;52.334;20.890;2023-07-29T12:46:05;2.70;;;1.52;;
19358;SDS011;9815;52.334;20.890;2023-07-29T12:48:33;1.80;;;1.60;;
19358;SDS011;9815;52.334;20.890;2023-07-29T12:51:01;1.77;;;1.52;;
19358;SDS011;9815;52.334;20.890;2023-07-29T12:53:33;2.47;;;1.70;;
19358;SDS011;9815;52.334;20.890;2023-07-29T12:56:05;1.60;;;1.50;;
19358;SDS011;9815;52.334;20.890;2023-07-29T12:58:36;3.90;;;1.63;;
19358;SDS011;9815;52.334;20.890;2023-07-29T13:01:10;1.73;;;1.60;;
19358;SDS011;9815;52.334;20.890;2023-07-29T13:03:45;2.72;;;1.50;;
19358;SDS011;9815;52.334;20.890;2023-07-29T13:06:17;1.90;;;1.38;;
19358;SDS011;9815;52.334;20.890;2023-07-29T13:08:47;1.95;;;1.50;;
19358;SDS011;9815;52.334;20.890;2023-07-29T13:11:16;2.38;;;1.50;;
19358;SDS011;9815;52.334;20.890;2023-07-29T13:13:44;2.13;;;1.40;;
19358;SDS011;9815;52.334;20.890;2023-07-29T13:16:13;1.40;;;1.30;;
19358;SDS011;9815;52.334;20.890;2023-07-29T13:18:43;1.48;;;1.38;;
19358;SDS011;9815;52.334;20.890;2023-07-29T13:21:11;1.80;;;1.50;;
19358;SDS011;9815;52.334;20.890;2023-07-29T13:23:39;3.95;;;2.03;;
19358;SDS011;9815;52.334;20.890;2023-07-29T13:26:09;1.88;;;1.35;;
19358;SDS011;9815;52.334;20.890;2023-07-29T13:28:40;3.05;;;1.65;;
19358;SDS011;9815;52.334;20.890;2023-07-29T13:31:09;6.35;;;1.40;;
19358;SDS011;9815;52.334;20.890;2023-07-29T13:33:39;1.50;;;1.40;;
19358;SDS011;9815;52.334;20.890;2023-07-29T13:36:07;2.55;;;1.38;;
19358;SDS011;9815;52.334;20.890;2023-07-29T13:38:36;1.50;;;1.40;;
19358;SDS011;9815;52.334;20.890;2023-07-29T13:41:04;4.25;;;1.85;;
19358;SDS011;9815;52.334;20.890;2023-07-29T13:43:34;1.77;;;1.40;;
19358;SDS011;9815;52.334;20.890;2023-07-29T13:46:02;3.22;;;1.50;;
19358;SDS011;9815;52.334;20.890;2023-07-29T13:48:30;1.50;;;1.40;;
19358;SDS011;9815;52.334;20.890;2023-07-29T13:50:59;3.35;;;1.45;;
19358;SDS011;9815;52.334;20.890;2023-07-29T13:53:28;1.98;;;1.50;;
19358;SDS011;9815;52.334;20.890;2023-07-29T13:55:56;2.38;;;1.50;;
19358;SDS011;9815;52.334;20.890;2023-07-29T13:58:24;3.17;;;1.38;;
19358;SDS011;9815;52.334;20.890;2023-07-29T14:00:54;1.70;;;1.60;;
19358;SDS011;9815;52.334;20.890;2023-07-29T14:03:25;1.98;;;1.63;;
19358;SDS011;9815;52.334;20.890;2023-07-29T14:05:54;2.10;;;1.50;;
19358;SDS011;9815;52.334;20.890;2023-07-29T14:08:22;2.33;;;1.48;;
19358;SDS011;9815;52.334;20.890;2023-07-29T14:10:50;2.75;;;1.48;;
19358;SDS011;9815;52.334;20.890;2023-07-29T14:13:19;3.30;;;1.35;;
19358;SDS011;9815;52.334;20.890;2023-07-29T14:15:47;2.92;;;1.52;;
19358;SDS011;9815;52.334;20.890;2023-07-29T14:18:17;3.95;;;1.70;;
19358;SDS011;9815;52.334;20.890;2023-07-29T14:20:45;1.80;;;1.50;;
19358;SDS011;9815;52.334;20.890;2023-07-29T14:23:14;3.70;;;1.67;;
19358;SDS011;9815;52.334;20.890;2023-07-29T14:25:42;2.28;;;1.30;;
19358;SDS011;9815;52.334;20.890;2023-07-29T14:28:10;2.97;;;1.90;;
19358;SDS011;9815;52.334;20.890;2023-07-29T14:30:40;1.80;;;1.50;;
19358;SDS011;9815;52.334;20.890;2023-07-29T14:33:09;1.60;;;1.40;;
19358;SDS011;9815;52.334;20.890;2023-07-29T14:35:39;1.95;;;1.58;;
19358;SDS011;9815;52.334;20.890;2023-07-29T14:38:08;3.05;;;1.90;;
19358;SDS011;9815;52.334;20.890;2023-07-29T14:40:36;4.15;;;1.80;;
19358;SDS011;9815;52.334;20.890;2023-07-29T14:43:05;3.88;;;1.83;;
19358;SDS011;9815;52.334;20.890;2023-07-29T14:45:33;2.50;;;1.80;;
19358;SDS011;9815;52.334;20.890;2023-07-29T14:48:02;1.90;;;1.55;;
19358;SDS011;9815;52.334;20.890;2023-07-29T14:50:34;4.65;;;1.95;;